首页
METAR-TAF:

METAR-TAF

机场 :

Tri-Cities Regional Airport

布里斯托尔 / 约翰逊城 / 金斯波特, 田纳西州, 美国

纬度: 36-28-47N, 经度: 082-23-56W, 海拔: 463米

当前天气观测

该预报发布于23分钟前的20:53 UTC
风速6节,风向西转西南
温度 29°C
湿度 55%
气压 1016 hPa
能見度: 16.1公里
散云层高于4700英尺
多云层高于25000英尺

METAR: KTRI 062053Z 24006KT 10SM SCT047 BKN250 29/19 A3001 RMK AO2 SLP135 T02940189 58019

时间: 17:16 (21:16 UTC)

预报

该预报发布于1小时和59分钟前的19:17 UTC
预报有效从06日的 19点(UTC)到 07日的 18点(UTC)
风速4节,风向多变
能見度: 10公里
散云层高于3500英尺
多云层高于6000英尺
从 07日的 0000点(UTC)
风速3节,风向多变
能見度: 10公里
少量云层高于4500英尺
从 07日的 0900点(UTC)
风速节,风向
能見度: 6.4公里
散云层高于1500英尺
轻雾
从 07日的 1100点(UTC)
风速节,风向
能見度: 1.6公里
多云层高于300英尺
轻雾
从 07日的 1200点(UTC)
风速节,风向
能見度: 4.8公里
散云层高于300英尺
轻雾
从 07日的 1300点(UTC)
风速3节,风向多变
能見度: 10公里
少量云层高于4500英尺

TAF: KTRI 061917Z 0619/0718 VRB04KT P6SM SCT035 BKN060 FM070000 VRB03KT P6SM FEW045 FM070900 00000KT 4SM BR SCT015 FM071100 00000KT 1SM BR BKN003 FM071200 00000KT 3SM BR SCT003 FM071300 VRB03KT P6SM FEW045

超过4000个机场的气象观测和天气预报(METAR&TAF报告)。

可查询的气象台以黄色和红色小点在地图上表示。

将鼠标移到小点上方,可查看气象台名称。

然后点击查看天气观测和预报。

如需切换地图:点击带黑十字的绿色按钮放大地图;点击带横线的绿色按钮缩小地图;或者点击绿色箭头查看邻近地区的地图。


METAR-TAF: